createdAt,value
2023-03-22T00:00:00.460Z,8.93
2023-03-22T00:03:02.882Z,8.92
2023-03-22T00:06:06.761Z,8.89
2023-03-22T00:09:08.569Z,8.96
2023-03-22T00:12:11.098Z,8.94
2023-03-22T00:15:12.657Z,8.95
2023-03-22T00:18:14.518Z,8.95
2023-03-22T00:21:17.540Z,8.97
2023-03-22T00:24:21.409Z,8.97
2023-03-22T00:27:23.039Z,8.95
2023-03-22T00:30:24.698Z,8.99
2023-03-22T00:33:28.657Z,8.98
2023-03-22T00:36:31.381Z,8.99
2023-03-22T00:39:33.039Z,9.03
2023-03-22T00:42:41.473Z,9.03
2023-03-22T00:45:43.295Z,9.07
2023-03-22T00:48:45.727Z,9.02
2023-03-22T00:51:47.395Z,9.08
2023-03-22T00:54:49.020Z,9.09
2023-03-22T00:57:50.779Z,9.08
2023-03-22T01:00:53.198Z,9.10
2023-03-22T01:03:55.268Z,9.09
2023-03-22T01:07:02.347Z,9.08
2023-03-22T01:10:06.166Z,9.07
2023-03-22T01:13:09.057Z,9.08
2023-03-22T01:16:12.168Z,9.09
2023-03-22T01:19:14.011Z,9.08
2023-03-22T01:22:15.757Z,9.11
2023-03-22T01:25:17.907Z,9.12
2023-03-22T01:28:19.558Z,9.12
2023-03-22T01:31:21.201Z,9.14
2023-03-22T01:34:22.983Z,9.16
2023-03-22T01:37:27.667Z,9.19
2023-03-22T01:40:29.404Z,9.12
2023-03-22T01:43:31.952Z,9.17
2023-03-22T01:46:34.044Z,9.16
2023-03-22T01:49:39.491Z,9.14
2023-03-22T01:52:43.423Z,9.14
2023-03-22T01:55:57.890Z,9.11
2023-03-22T01:59:06.554Z,9.11
2023-03-22T02:02:30.967Z,9.08
2023-03-22T02:05:45.413Z,9.05
2023-03-22T02:08:49.812Z,8.96
2023-03-22T02:12:00.242Z,8.98
2023-03-22T02:15:37.582Z,8.93
2023-03-22T02:19:29.240Z,8.90
2023-03-22T02:22:50.079Z,8.86
2023-03-22T02:26:10.788Z,8.85
2023-03-22T02:29:19.261Z,8.84
2023-03-22T02:32:35.981Z,8.81
2023-03-22T02:36:11.866Z,8.80
2023-03-22T02:39:38.242Z,8.78
2023-03-22T02:42:58.802Z,8.77
2023-03-22T02:46:08.668Z,8.70
2023-03-22T02:49:29.341Z,8.73
2023-03-22T02:52:51.573Z,8.71
2023-03-22T02:56:08.343Z,8.67
2023-03-22T02:59:13.255Z,8.66
2023-03-22T03:02:19.694Z,8.61
2023-03-22T03:05:23.910Z,8.62
2023-03-22T03:08:29.362Z,8.59
2023-03-22T03:11:33.266Z,8.56
2023-03-22T03:14:37.998Z,8.53
2023-03-22T03:17:52.508Z,8.49
2023-03-22T03:21:02.734Z,8.45
2023-03-22T03:24:23.183Z,8.38
2023-03-22T03:27:51.405Z,8.31
2023-03-22T03:31:07.860Z,8.23
2023-03-22T03:34:10.094Z,8.16
2023-03-22T03:37:17.809Z,8.10
2023-03-22T03:40:32.969Z,8.02
2023-03-22T03:43:35.818Z,7.93
2023-03-22T03:46:39.184Z,7.88
2023-03-22T03:49:44.091Z,7.81
2023-03-22T03:52:47.212Z,7.74
2023-03-22T03:55:49.387Z,7.68
2023-03-22T03:58:52.857Z,7.60
2023-03-22T04:01:54.673Z,7.54
2023-03-22T04:05:01.018Z,7.49
2023-03-22T04:08:02.646Z,7.42
2023-03-22T04:11:04.919Z,7.37
2023-03-22T04:14:09.072Z,7.30
2023-03-22T04:17:13.577Z,7.25
2023-03-22T04:20:16.694Z,7.19
2023-03-22T04:23:23.140Z,7.14
2023-03-22T04:26:26.926Z,7.09
2023-03-22T04:30:01.420Z,7.03
2023-03-22T04:33:23.278Z,6.97
2023-03-22T04:36:45.211Z,6.90
2023-03-22T04:39:53.968Z,6.85
2023-03-22T04:43:24.185Z,6.80
2023-03-22T04:46:35.684Z,6.75
2023-03-22T04:49:52.054Z,6.69
2023-03-22T04:52:58.681Z,6.63
2023-03-22T04:56:06.591Z,6.60
2023-03-22T04:59:10.874Z,6.53
2023-03-22T05:02:16.055Z,6.50
2023-03-22T05:05:24.721Z,6.47
2023-03-22T05:08:29.336Z,6.36
2023-03-22T05:11:31.569Z,6.36
2023-03-22T05:14:47.225Z,6.32
2023-03-22T05:17:54.154Z,6.29
2023-03-22T05:20:57.578Z,6.24
2023-03-22T05:24:05.746Z,6.20
2023-03-22T05:27:10.894Z,6.16
2023-03-22T05:30:15.546Z,6.12
2023-03-22T05:33:37.279Z,6.11
2023-03-22T05:36:44.437Z,6.07
2023-03-22T05:40:20.087Z,6.04
2023-03-22T05:43:23.989Z,6.01
2023-03-22T05:46:30.401Z,5.99
2023-03-22T05:49:56.419Z,5.97
2023-03-22T05:53:03.101Z,5.95
2023-03-22T05:56:28.031Z,5.97
2023-03-22T05:59:41.888Z,5.98
2023-03-22T06:02:57.586Z,5.99
2023-03-22T06:06:06.790Z,6.01
2023-03-22T06:09:18.400Z,6.04
2023-03-22T06:12:28.831Z,6.06
2023-03-22T06:15:45.379Z,6.08
2023-03-22T06:18:55.990Z,6.11
2023-03-22T06:22:00.750Z,6.13
2023-03-22T06:25:11.322Z,6.17
2023-03-22T06:28:21.081Z,6.21
2023-03-22T06:31:26.308Z,6.25
2023-03-22T06:34:35.087Z,6.29
2023-03-22T06:37:38.628Z,6.33
2023-03-22T06:40:43.561Z,6.40
2023-03-22T06:43:48.882Z,6.46
2023-03-22T06:47:18.930Z,6.52
2023-03-22T06:50:47.696Z,6.60
2023-03-22T06:54:06.053Z,6.66
2023-03-22T06:57:12.406Z,6.72
2023-03-22T07:00:16.931Z,6.79
2023-03-22T07:03:22.013Z,6.85
2023-03-22T07:06:33.013Z,6.94
2023-03-22T07:09:44.204Z,7.02
2023-03-22T07:12:51.126Z,7.10
2023-03-22T07:16:04.172Z,7.19
2023-03-22T07:19:12.186Z,7.29
2023-03-22T07:22:19.175Z,7.39
2023-03-22T07:25:24.187Z,7.50
2023-03-22T07:28:39.457Z,7.61
2023-03-22T07:31:53.891Z,7.74
2023-03-22T07:35:26.942Z,7.89
2023-03-22T07:38:31.603Z,8.04
2023-03-22T07:41:34.567Z,8.17
2023-03-22T07:45:11.426Z,8.34
2023-03-22T07:48:22.777Z,8.47
2023-03-22T07:51:43.727Z,8.64
2023-03-22T07:54:45.690Z,8.78
2023-03-22T07:57:49.890Z,8.93
2023-03-22T08:00:52.631Z,9.08
2023-03-22T08:04:24.570Z,9.22
2023-03-22T08:07:54.718Z,9.36
2023-03-22T08:10:57.894Z,9.46
2023-03-22T08:14:04.509Z,9.58
2023-03-22T08:17:11.716Z,9.69
2023-03-22T08:20:14.684Z,9.79
2023-03-22T08:23:42.034Z,9.92
2023-03-22T08:26:49.753Z,10.05
2023-03-22T08:30:01.052Z,10.15
2023-03-22T08:33:11.292Z,10.26
2023-03-22T08:36:24.822Z,10.35
2023-03-22T08:39:38.678Z,10.43
2023-03-22T08:42:56.294Z,10.54
2023-03-22T08:46:00.246Z,10.62
2023-03-22T08:49:10.346Z,10.71
2023-03-22T08:52:34.660Z,10.85
2023-03-22T08:55:48.317Z,10.94
2023-03-22T08:59:20.806Z,11.03
2023-03-22T09:02:47.945Z,11.12
2023-03-22T09:05:51.647Z,11.26
2023-03-22T09:08:54.613Z,11.38
2023-03-22T09:11:59.226Z,11.45
2023-03-22T09:15:03.275Z,11.57
2023-03-22T09:18:14.826Z,11.66
2023-03-22T09:21:18.237Z,11.77
2023-03-22T09:24:41.632Z,11.88
2023-03-22T09:27:52.571Z,12.02
2023-03-22T09:31:01.696Z,12.13
2023-03-22T09:34:09.689Z,12.27
2023-03-22T09:37:16.007Z,12.42
2023-03-22T09:40:34.342Z,12.57
2023-03-22T09:43:52.273Z,12.70
2023-03-22T09:46:56.827Z,12.82
2023-03-22T09:50:07.515Z,12.89
2023-03-22T09:53:13.763Z,13.02
2023-03-22T09:56:26.785Z,13.14
2023-03-22T09:59:54.075Z,13.26
2023-03-22T10:03:25.585Z,13.37
2023-03-22T10:06:29.573Z,13.45
2023-03-22T10:09:34.353Z,13.56
2023-03-22T10:12:43.260Z,13.65
2023-03-22T10:15:54.229Z,13.75
2023-03-22T10:19:22.231Z,13.84
2023-03-22T10:22:30.790Z,13.94
2023-03-22T10:25:38.898Z,14.03
2023-03-22T10:28:44.704Z,14.08
2023-03-22T10:31:46.894Z,14.13
2023-03-22T10:34:49.396Z,14.17
2023-03-22T10:37:52.982Z,14.21
2023-03-22T10:40:58.128Z,14.26
2023-03-22T10:44:02.640Z,14.40
2023-03-22T10:47:08.617Z,14.47
2023-03-22T10:50:44.576Z,14.56
2023-03-22T10:53:51.092Z,14.61
2023-03-22T10:56:52.782Z,14.68
2023-03-22T10:59:58.242Z,14.77
2023-03-22T11:03:01.819Z,14.81
2023-03-22T11:06:06.678Z,14.83
2023-03-22T11:09:23.644Z,14.82
2023-03-22T11:12:26.888Z,14.88
2023-03-22T11:15:31.410Z,14.92
2023-03-22T11:18:35.256Z,15.02
2023-03-22T11:21:37.060Z,15.08
2023-03-22T11:24:39.288Z,15.17
2023-03-22T11:28:16.763Z,15.22
2023-03-22T11:31:21.715Z,15.33
2023-03-22T11:34:27.591Z,15.41
2023-03-22T11:37:29.683Z,15.51
2023-03-22T11:40:34.965Z,15.60
2023-03-22T11:43:46.354Z,15.71
2023-03-22T11:46:55.898Z,15.81
2023-03-22T11:49:57.585Z,15.88
2023-03-22T11:53:07.097Z,15.96
2023-03-22T11:56:12.442Z,15.97
2023-03-22T11:59:40.212Z,16.04
2023-03-22T12:02:51.724Z,16.11
2023-03-22T12:05:55.029Z,16.13
2023-03-22T12:09:01.884Z,16.16
2023-03-22T12:12:06.382Z,16.18
2023-03-22T12:15:11.056Z,16.26
2023-03-22T12:18:19.821Z,16.34
2023-03-22T12:21:21.455Z,16.45
2023-03-22T12:24:32.273Z,16.55
2023-03-22T12:27:41.433Z,16.62
2023-03-22T12:30:47.547Z,16.72
2023-03-22T12:33:53.791Z,16.79
2023-03-22T12:36:57.287Z,16.81
2023-03-22T12:40:05.602Z,16.87
2023-03-22T12:43:32.161Z,16.94
2023-03-22T12:46:40.074Z,16.98
2023-03-22T12:50:02.829Z,17.02
2023-03-22T12:53:05.322Z,17.06
2023-03-22T12:56:07.952Z,17.13
2023-03-22T12:59:30.808Z,17.18
2023-03-22T13:02:35.054Z,17.20
2023-03-22T13:05:37.645Z,17.21
2023-03-22T13:09:15.519Z,17.21
2023-03-22T13:12:18.224Z,17.22
2023-03-22T13:15:41.797Z,17.22
2023-03-22T13:18:47.603Z,17.20
2023-03-22T13:21:50.135Z,17.18
2023-03-22T13:25:29.159Z,17.16
2023-03-22T13:28:37.131Z,17.15
2023-03-22T13:31:45.397Z,17.16
2023-03-22T13:34:52.578Z,17.22
2023-03-22T13:38:03.135Z,17.26
2023-03-22T13:41:13.842Z,17.28
2023-03-22T13:44:27.428Z,17.30
2023-03-22T13:47:46.554Z,17.34
2023-03-22T13:50:49.082Z,17.39
2023-03-22T13:53:57.188Z,17.42
2023-03-22T13:57:01.654Z,17.44
2023-03-22T14:00:20.215Z,17.50
2023-03-22T14:03:35.811Z,17.55
2023-03-22T14:07:00.187Z,17.56
2023-03-22T14:10:12.803Z,17.67
2023-03-22T14:13:21.123Z,17.72
2023-03-22T14:16:36.808Z,17.75
2023-03-22T14:19:41.940Z,17.85
